In Rescue
 
Open Full Screen Window  High Contrast Mode
Wind Gusting 00 knots
07
January 17, 2021 2:56 PM EST
Present Weather: Light Snow
Weather Information
Wind Direction
  240 °
Wind Speed
  07 kt (8 mph)
Wind Gust
  00 kt (0 mph)
Altimeter
29.64 in
Visibility
2 1/2 SM
Temperature
00° C
32° F
Dewpoint
-01° C
30° F
Humidity
93%
Sky Condition
Overcast @ 2,100 ft
Broken @ 1,400 ft
Scattered @ 800 ft
IFR

METAR KOEB 171956Z AUTO 24007KT 2 1/2SM -SN SCT008 BKN014 OVC021 00/M01 A2964 RMK AO2 T00021007

FAA Disclaimer: The data displayed is for advisory purposes only and is not to be used for flight planning or operations.